Time;durP1;ratioP1;P1;durP2;ratioP2;P2;SDS_P1;SDS_P2;PMS_P1;PMS_P2;Temp;Humidity;BMP_temperature;BMP_pressure;BME280_temperature;BME280_humidity;BME280_pressure;Samples;Min_cycle;Max_cycle;Signal;HPM_P1;HPM_P2
2020/12/14 00:00:37;;;;;;;7.07;2.75;;;;;;;;;;4991997;28;20377;-74
2020/12/14 00:03:02;;;;;;;17.30;2.33;;;;;;;;;;4991492;28;20442;-74
2020/12/14 00:05:27;;;;;;;12.63;2.37;;;;;;;;;;4993302;28;20026;-74
2020/12/14 00:07:53;;;;;;;13.32;2.80;;;;;;;;;;4992648;28;20265;-74
2020/12/14 00:10:18;;;;;;;9.55;2.17;;;;;;;;;;4991912;28;20479;-74
2020/12/14 00:12:43;;;;;;;8.98;2.72;;;;;;;;;;4992291;28;20479;-74
2020/12/14 00:15:08;;;;;;;3.95;1.35;;;;;;;;;;4992095;28;20411;-74
2020/12/14 00:17:33;;;;;;;4.35;2.30;;;;;;;;;;4991689;28;20053;-74
2020/12/14 00:19:59;;;;;;;9.50;2.47;;;;;;;;;;4991177;28;20034;-74
2020/12/14 00:22:28;;;;;;;5.97;2.45;;;;;;;;;;4993411;28;20018;-74
2020/12/14 00:24:53;;;;;;;7.28;2.17;;;;;;;;;;4991888;28;20030;-74
2020/12/14 00:27:18;;;;;;;13.37;2.70;;;;;;;;;;4991983;28;20036;-74
2020/12/14 00:29:43;;;;;;;13.47;2.20;;;;;;;;;;4991631;28;20262;-74
2020/12/14 00:32:08;;;;;;;12.63;1.80;;;;;;;;;;4992033;28;20912;-74
2020/12/14 00:34:33;;;;;;;6.22;1.52;;;;;;;;;;4991975;28;20257;-74
2020/12/14 00:36:58;;;;;;;7.60;2.03;;;;;;;;;;4992260;28;20392;-74
2020/12/14 00:39:24;;;;;;;7.57;1.63;;;;;;;;;;4992602;28;20486;-74
2020/12/14 00:41:49;;;;;;;3.10;1.42;;;;;;;;;;4992028;28;20284;-74
2020/12/14 00:44:14;;;;;;;6.38;1.98;;;;;;;;;;4991799;28;20080;-74
2020/12/14 00:46:39;;;;;;;5.73;1.77;;;;;;;;;;4991852;28;20026;-74
2020/12/14 00:49:04;;;;;;;8.70;1.58;;;;;;;;;;4991816;28;20289;-74
2020/12/14 00:51:30;;;;;;;3.40;1.85;;;;;;;;;;4991721;28;20026;-74
2020/12/14 00:53:56;;;;;;;8.15;2.00;;;;;;;;;;4991768;28;20031;-74
2020/12/14 00:56:21;;;;;;;3.03;1.25;;;;;;;;;;4992727;28;20035;-74
2020/12/14 00:58:46;;;;;;;2.45;1.40;;;;;;;;;;4991445;28;20030;-74
2020/12/14 01:01:13;;;;;;;5.03;1.60;;;;;;;;;;4991111;28;20097;-74
2020/12/14 01:03:38;;;;;;;9.75;1.77;;;;;;;;;;4991503;28;20109;-74
2020/12/14 01:06:03;;;;;;;3.80;1.35;;;;;;;;;;4991479;28;20058;-74
2020/12/14 01:08:28;;;;;;;8.77;2.10;;;;;;;;;;4991419;28;20014;-74
2020/12/14 01:10:53;;;;;;;11.60;1.80;;;;;;;;;;4990408;28;20046;-74
2020/12/14 01:13:19;;;;;;;7.88;1.50;;;;;;;;;;4974866;28;20393;-74
2020/12/14 01:15:44;;;;;;;9.80;1.70;;;;;;;;;;4989023;28;20109;-74
2020/12/14 01:18:09;;;;;;;12.20;2.28;;;;;;;;;;4991207;28;20638;-74
2020/12/14 01:20:38;;;;;;;6.13;1.90;;;;;;;;;;4995785;28;20022;-75
2020/12/14 01:23:03;;;;;;;2.17;1.70;;;;;;;;;;4996746;28;20045;-74
2020/12/14 01:25:28;;;;;;;5.90;2.35;;;;;;;;;;4991100;28;20022;-74
2020/12/14 01:27:53;;;;;;;4.33;1.47;;;;;;;;;;4990625;28;20031;-74
2020/12/14 01:30:19;;;;;;;7.43;1.73;;;;;;;;;;4991446;28;20276;-74
2020/12/14 01:32:44;;;;;;;4.73;1.87;;;;;;;;;;4991429;28;20265;-74
2020/12/14 01:35:09;;;;;;;3.38;1.95;;;;;;;;;;4991010;28;20754;-74
2020/12/14 01:37:34;;;;;;;8.82;2.08;;;;;;;;;;4991341;28;20054;-74
2020/12/14 01:39:59;;;;;;;5.38;1.40;;;;;;;;;;4990681;28;20034;-74
2020/12/14 01:42:24;;;;;;;5.15;2.58;;;;;;;;;;4991084;28;20033;-74
2020/12/14 01:44:50;;;;;;;7.43;2.10;;;;;;;;;;4991459;28;20476;-74
2020/12/14 01:47:19;;;;;;;1.88;1.13;;;;;;;;;;4992941;28;20321;-72
2020/12/14 01:49:44;;;;;;;3.40;1.65;;;;;;;;;;4989915;28;20034;-73
2020/12/14 01:52:10;;;;;;;6.05;2.00;;;;;;;;;;4975403;28;20033;-71
2020/12/14 01:54:36;;;;;;;9.98;2.40;;;;;;;;;;4990872;28;20022;-73
2020/12/14 01:57:01;;;;;;;8.40;2.10;;;;;;;;;;4990798;28;20022;-73
2020/12/14 01:59:27;;;;;;;8.95;2.88;;;;;;;;;;4990509;28;20072;-72
2020/12/14 02:01:52;;;;;;;5.30;2.05;;;;;;;;;;4991601;28;20054;-72
2020/12/14 02:04:17;;;;;;;10.93;1.10;;;;;;;;;;4990579;28;20024;-72
2020/12/14 02:06:42;;;;;;;11.77;1.83;;;;;;;;;;4991080;28;20459;-72
2020/12/14 02:09:07;;;;;;;5.28;1.35;;;;;;;;;;4990318;28;20272;-72
2020/12/14 02:11:33;;;;;;;5.28;2.55;;;;;;;;;;4990373;28;20073;-72
2020/12/14 02:13:58;;;;;;;10.05;2.05;;;;;;;;;;4990993;28;20126;-73
2020/12/14 02:16:23;;;;;;;1.27;0.87;;;;;;;;;;4990386;28;20038;-72
2020/12/14 02:18:48;;;;;;;9.40;2.87;;;;;;;;;;4992440;28;20271;-72
2020/12/14 02:21:14;;;;;;;7.00;1.90;;;;;;;;;;4996139;28;20368;-72
2020/12/14 02:23:39;;;;;;;5.85;2.05;;;;;;;;;;4994993;28;20333;-72
2020/12/14 02:26:04;;;;;;;3.37;1.63;;;;;;;;;;4994169;28;20093;-72
2020/12/14 02:28:30;;;;;;;6.40;2.67;;;;;;;;;;4994471;28;20261;-73
2020/12/14 02:30:55;;;;;;;3.90;1.95;;;;;;;;;;4994032;28;20349;-72
2020/12/14 02:33:20;;;;;;;2.05;1.52;;;;;;;;;;4994395;28;20486;-72
2020/12/14 02:35:46;;;;;;;2.60;1.20;;;;;;;;;;4977504;28;20015;-71
2020/12/14 02:38:11;;;;;;;8.45;2.05;;;;;;;;;;4976770;28;20262;-72
2020/12/14 02:40:36;;;;;;;4.55;1.60;;;;;;;;;;4993943;28;20487;-72
2020/12/14 02:43:02;;;;;;;3.20;1.35;;;;;;;;;;4977004;28;20034;-72
2020/12/14 02:45:27;;;;;;;8.40;2.30;;;;;;;;;;4993706;28;20467;-72
2020/12/14 02:47:52;;;;;;;8.30;2.30;;;;;;;;;;4976977;28;20264;-72
2020/12/14 02:50:17;;;;;;;8.65;2.20;;;;;;;;;;4993155;28;20754;-72
2020/12/14 02:52:42;;;;;;;2.57;1.37;;;;;;;;;;4994073;28;20058;-72
2020/12/14 02:55:07;;;;;;;3.47;1.00;;;;;;;;;;4993350;28;20266;-72
2020/12/14 02:57:33;;;;;;;8.30;1.60;;;;;;;;;;4993760;28;20025;-72
2020/12/14 02:59:58;;;;;;;2.80;1.35;;;;;;;;;;4993144;28;20502;-72
2020/12/14 03:02:23;;;;;;;6.37;1.40;;;;;;;;;;4993743;28;20623;-72
2020/12/14 03:04:48;;;;;;;5.97;1.63;;;;;;;;;;4993637;28;20258;-72
2020/12/14 03:07:13;;;;;;;7.80;1.63;;;;;;;;;;4993248;28;20032;-72
2020/12/14 03:09:39;;;;;;;4.82;1.05;;;;;;;;;;4976611;28;20022;-72
2020/12/14 03:12:04;;;;;;;2.00;1.25;;;;;;;;;;4993635;28;20030;-71
2020/12/14 03:14:29;;;;;;;7.53;1.90;;;;;;;;;;4993047;28;20085;-72
2020/12/14 03:16:56;;;;;;;3.42;1.52;;;;;;;;;;4993557;28;20249;-71
2020/12/14 03:19:21;;;;;;;8.88;1.65;;;;;;;;;;4992199;28;20098;-73
2020/12/14 03:21:47;;;;;;;6.35;1.75;;;;;;;;;;4993071;28;20466;-72
2020/12/14 03:24:12;;;;;;;15.25;1.70;;;;;;;;;;4993336;28;20038;-72
2020/12/14 03:26:37;;;;;;;3.42;1.00;;;;;;;;;;4994593;28;20018;-71
2020/12/14 03:29:03;;;;;;;1.88;0.88;;;;;;;;;;4992597;28;20554;-72
2020/12/14 03:31:28;;;;;;;7.00;1.63;;;;;;;;;;4993203;28;20443;-72
2020/12/14 03:33:54;;;;;;;6.97;1.80;;;;;;;;;;4991342;28;20010;-72
2020/12/14 03:36:20;;;;;;;4.70;1.08;;;;;;;;;;4992466;28;20276;-72
2020/12/14 03:38:46;;;;;;;4.72;1.63;;;;;;;;;;4993157;28;20025;-71
2020/12/14 03:41:11;;;;;;;3.42;1.15;;;;;;;;;;4992109;28;20113;-72
2020/12/14 03:43:36;;;;;;;7.43;1.92;;;;;;;;;;4993090;28;20102;-72
2020/12/14 03:46:02;;;;;;;6.40;1.40;;;;;;;;;;4992565;28;20041;-72
2020/12/14 03:48:27;;;;;;;8.43;1.80;;;;;;;;;;4992777;28;20336;-72
2020/12/14 03:50:52;;;;;;;5.47;1.65;;;;;;;;;;4991994;28;20490;-72
2020/12/14 03:53:18;;;;;;;3.28;1.02;;;;;;;;;;4975235;28;20049;-72
2020/12/14 03:55:43;;;;;;;2.65;1.50;;;;;;;;;;4992577;28;20033;-72
2020/12/14 03:58:08;;;;;;;2.17;1.38;;;;;;;;;;4993758;28;20045;-75
2020/12/14 04:00:34;;;;;;;4.57;1.30;;;;;;;;;;4991894;28;20768;-72
2020/12/14 04:03:06;;;;;;;11.13;1.83;;;;;;;;;;4992655;28;20014;-72
2020/12/14 04:05:31;;;;;;;11.10;2.08;;;;;;;;;;4992244;28;20044;-72
2020/12/14 04:07:56;;;;;;;13.75;2.42;;;;;;;;;;4992777;28;20472;-72
2020/12/14 04:10:21;;;;;;;2.50;1.50;;;;;;;;;;4992286;28;20026;-74
2020/12/14 04:12:47;;;;;;;2.70;1.15;;;;;;;;;;5003601;28;20097;-72
2020/12/14 04:15:12;;;;;;;3.35;1.15;;;;;;;;;;5005777;28;20129;-73
2020/12/14 04:17:37;;;;;;;3.25;0.95;;;;;;;;;;4990966;28;20034;-71
2020/12/14 04:20:02;;;;;;;3.00;0.82;;;;;;;;;;4987208;28;20030;-73
2020/12/14 04:22:27;;;;;;;1.02;0.52;;;;;;;;;;5004834;28;20265;-72
2020/12/14 04:24:52;;;;;;;4.70;1.67;;;;;;;;;;4992675;28;20014;-73
2020/12/14 04:27:18;;;;;;;6.43;1.13;;;;;;;;;;4991927;28;20491;-71
2020/12/14 04:29:43;;;;;;;5.63;1.50;;;;;;;;;;5004375;28;20068;-73
2020/12/14 04:32:08;;;;;;;8.95;1.70;;;;;;;;;;5006352;28;20289;-75
2020/12/14 04:34:33;;;;;;;7.70;1.73;;;;;;;;;;4992817;28;20501;-71
2020/12/14 04:36:58;;;;;;;6.00;1.30;;;;;;;;;;4991654;28;20072;-72
2020/12/14 04:39:23;;;;;;;3.58;1.20;;;;;;;;;;4991126;28;20117;-73
2020/12/14 04:41:54;;;;;;;7.82;1.50;;;;;;;;;;4991938;28;20322;-72
2020/12/14 04:44:19;;;;;;;7.95;1.90;;;;;;;;;;4990875;28;20037;-72
2020/12/14 04:46:47;;;;;;;2.42;1.10;;;;;;;;;;5004737;28;20034;-72
2020/12/14 04:49:12;;;;;;;4.95;1.20;;;;;;;;;;4998758;28;20022;-72
2020/12/14 04:51:38;;;;;;;6.47;1.70;;;;;;;;;;4991844;28;20490;-72
2020/12/14 04:54:04;;;;;;;5.05;1.90;;;;;;;;;;4991801;28;20041;-73
2020/12/14 04:56:30;;;;;;;7.68;2.28;;;;;;;;;;4974326;28;20026;-72
2020/12/14 04:58:58;;;;;;;2.85;1.27;;;;;;;;;;4991394;28;20029;-72
2020/12/14 05:01:24;;;;;;;6.07;1.13;;;;;;;;;;4991634;28;20391;-73
2020/12/14 05:03:49;;;;;;;8.50;1.73;;;;;;;;;;4998200;28;20025;-72
2020/12/14 05:06:14;;;;;;;2.80;1.02;;;;;;;;;;4991295;28;20023;-72
2020/12/14 05:08:41;;;;;;;10.90;2.63;;;;;;;;;;4991200;28;20018;-73
2020/12/14 05:11:06;;;;;;;4.93;1.33;;;;;;;;;;4991190;28;20026;-71
2020/12/14 05:13:33;;;;;;;3.70;1.58;;;;;;;;;;4990989;28;20364;-72
2020/12/14 05:15:58;;;;;;;7.57;1.60;;;;;;;;;;4991576;28;20403;-71
2020/12/14 05:18:23;;;;;;;7.32;1.42;;;;;;;;;;4991782;28;20030;-71
2020/12/14 05:20:56;;;;;;;3.40;1.38;;;;;;;;;;4990644;28;20030;-71
2020/12/14 05:23:21;;;;;;;2.00;1.00;;;;;;;;;;4991339;28;20018;-71
2020/12/14 05:25:46;;;;;;;4.18;1.73;;;;;;;;;;4990801;28;20037;-73
2020/12/14 05:28:14;;;;;;;5.57;0.90;;;;;;;;;;4991007;28;20048;-71
2020/12/14 05:30:46;;;;;;;7.85;1.30;;;;;;;;;;4990662;28;20023;-71
2020/12/14 05:33:12;;;;;;;3.53;1.60;;;;;;;;;;4991141;28;20364;-71
2020/12/14 05:35:39;;;;;;;3.75;1.77;;;;;;;;;;4991800;28;20027;-71
2020/12/14 05:38:17;;;;;;;7.22;1.58;;;;;;;;;;4992181;28;20033;-71
2020/12/14 05:40:44;;;;;;;2.67;1.33;;;;;;;;;;4995769;28;20510;-72
2020/12/14 05:43:11;;;;;;;2.50;1.02;;;;;;;;;;4991167;28;20029;-71
2020/12/14 05:45:36;;;;;;;3.47;1.58;;;;;;;;;;4990396;28;20033;-71
2020/12/14 05:48:01;;;;;;;3.65;1.80;;;;;;;;;;4991000;28;20019;-72
2020/12/14 05:50:27;;;;;;;8.93;1.63;;;;;;;;;;4990093;28;20042;-71
2020/12/14 05:52:53;;;;;;;1.75;0.95;;;;;;;;;;4994956;28;20398;-71
2020/12/14 05:55:20;;;;;;;5.90;1.67;;;;;;;;;;5003810;28;20025;-71
2020/12/14 05:57:48;;;;;;;6.97;2.00;;;;;;;;;;4995372;28;20049;-71
2020/12/14 06:00:13;;;;;;;3.47;1.35;;;;;;;;;;5004412;28;20467;-71
2020/12/14 06:02:38;;;;;;;4.05;1.60;;;;;;;;;;4994951;28;20034;-71
2020/12/14 06:05:07;;;;;;;2.28;1.15;;;;;;;;;;4994454;28;20018;-72
2020/12/14 06:07:33;;;;;;;3.20;1.40;;;;;;;;;;4994851;28;20023;-71
2020/12/14 06:10:09;;;;;;;2.33;1.00;;;;;;;;;;4994715;28;20026;-71
2020/12/14 06:12:36;;;;;;;10.57;2.88;;;;;;;;;;4957786;28;20026;-71
2020/12/14 06:15:06;;;;;;;7.18;2.08;;;;;;;;;;4982551;28;20022;-71
2020/12/14 06:17:31;;;;;;;2.55;1.15;;;;;;;;;;5001012;28;20045;-71
2020/12/14 06:20:23;;;;;;;5.25;1.60;;;;;;;;;;4984804;28;20018;-72
2020/12/14 06:22:58;;;;;;;5.65;1.98;;;;;;;;;;5009144;28;20034;-73
2020/12/14 06:25:24;;;;;;;9.02;2.30;;;;;;;;;;5001747;28;20030;-71
2020/12/14 06:27:49;;;;;;;4.15;1.42;;;;;;;;;;4995715;28;20410;-71
2020/12/14 06:30:30;;;;;;;15.70;2.10;;;;;;;;;;4993783;28;20529;-72
2020/12/14 06:32:58;;;;;;;3.75;1.50;;;;;;;;;;4994318;28;20014;-71
2020/12/14 06:35:41;;;;;;;8.57;1.30;;;;;;;;;;4993735;28;20025;-71
2020/12/14 06:38:06;;;;;;;7.90;1.33;;;;;;;;;;4994063;28;20018;-72
2020/12/14 06:40:51;;;;;;;5.93;1.52;;;;;;;;;;4993536;28;20084;-71
2020/12/14 06:43:33;;;;;;;6.47;1.30;;;;;;;;;;4994663;28;20088;-71
2020/12/14 06:45:59;;;;;;;4.55;1.48;;;;;;;;;;4993135;28;20023;-72
2020/12/14 06:48:34;;;;;;;8.10;1.88;;;;;;;;;;4993363;28;20030;-71
2020/12/14 06:50:59;;;;;;;8.50;1.17;;;;;;;;;;4993190;28;20374;-71
2020/12/14 06:53:36;;;;;;;5.28;1.23;;;;;;;;;;4993524;28;20109;-71
2020/12/14 06:56:02;;;;;;;6.32;1.90;;;;;;;;;;4993044;28;20566;-71
2020/12/14 06:58:35;;;;;;;10.30;2.53;;;;;;;;;;4976249;28;20129;-74
2020/12/14 07:01:00;;;;;;;7.45;1.90;;;;;;;;;;4994154;28;20394;-72
2020/12/14 07:03:29;;;;;;;6.78;1.73;;;;;;;;;;4993648;28;20022;-73
2020/12/14 07:05:57;;;;;;;9.70;1.33;;;;;;;;;;4993519;28;20018;-72
2020/12/14 07:08:31;;;;;;;1.52;1.20;;;;;;;;;;4993436;28;20378;-72
2020/12/14 07:11:12;;;;;;;8.18;2.80;;;;;;;;;;4994121;28;20018;-74
2020/12/14 07:13:38;;;;;;;3.00;1.48;;;;;;;;;;4993900;28;20407;-72
2020/12/14 07:16:07;;;;;;;4.80;1.95;;;;;;;;;;4993330;28;20026;-72
2020/12/14 07:18:33;;;;;;;4.07;1.10;;;;;;;;;;4975195;28;20057;-73
2020/12/14 07:21:03;;;;;;;3.05;1.67;;;;;;;;;;4975481;28;20026;-72
2020/12/14 07:23:29;;;;;;;5.35;2.20;;;;;;;;;;4975398;28;20061;-70
2020/12/14 07:25:55;;;;;;;4.22;1.48;;;;;;;;;;5001538;28;20077;-71
2020/12/14 07:28:32;;;;;;;6.45;1.70;;;;;;;;;;4992895;28;20464;-71
2020/12/14 07:31:02;;;;;;;7.28;1.67;;;;;;;;;;4992458;28;20435;-70
2020/12/14 07:33:27;;;;;;;2.33;0.75;;;;;;;;;;4993156;28;20030;-70
2020/12/14 07:36:00;;;;;;;3.92;1.50;;;;;;;;;;4975414;28;20026;-71
2020/12/14 07:38:25;;;;;;;11.50;1.75;;;;;;;;;;4992929;28;20261;-72
2020/12/14 07:40:50;;;;;;;4.00;2.10;;;;;;;;;;4992240;28;20026;-71
2020/12/14 07:43:18;;;;;;;2.13;1.00;;;;;;;;;;5010206;28;20269;-71
2020/12/14 07:48:17;;;;;;;4.95;1.70;;;;;;;;;;5030017;28;20044;-67
2020/12/14 07:50:42;;;;;;;1.88;1.10;;;;;;;;;;5031337;28;20064;-66
2020/12/14 07:53:07;;;;;;;3.92;1.40;;;;;;;;;;5032009;28;20075;-67
2020/12/14 07:55:36;;;;;;;2.28;0.88;;;;;;;;;;5032227;28;20257;-67
2020/12/14 07:58:01;;;;;;;8.60;1.40;;;;;;;;;;5008781;28;20852;-67
2020/12/14 08:00:27;;;;;;;8.02;1.90;;;;;;;;;;4992500;28;20105;-67
2020/12/14 08:03:03;;;;;;;6.18;1.88;;;;;;;;;;5009308;28;20053;-67
2020/12/14 08:05:28;;;;;;;4.60;1.45;;;;;;;;;;5011957;28;20217;-67
2020/12/14 08:08:04;;;;;;;8.63;1.67;;;;;;;;;;5011939;28;20462;-67
2020/12/14 08:10:31;;;;;;;8.27;1.90;;;;;;;;;;5011455;28;20712;-67
2020/12/14 08:12:57;;;;;;;7.43;2.15;;;;;;;;;;5011888;28;20022;-67
2020/12/14 08:15:22;;;;;;;8.65;2.65;;;;;;;;;;5011578;28;20021;-67
2020/12/14 08:17:48;;;;;;;4.13;2.03;;;;;;;;;;5011648;28;20029;-67
2020/12/14 08:20:33;;;;;;;7.75;2.22;;;;;;;;;;5009859;28;20104;-66
2020/12/14 08:22:59;;;;;;;4.65;1.75;;;;;;;;;;5011421;28;20198;-67
2020/12/14 08:25:28;;;;;;;7.30;1.75;;;;;;;;;;5011321;28;20021;-66
2020/12/14 08:27:55;;;;;;;5.13;0.97;;;;;;;;;;5011784;28;20447;-66
2020/12/14 08:30:21;;;;;;;1.90;1.25;;;;;;;;;;4999765;28;20482;-67
2020/12/14 08:33:05;;;;;;;2.83;1.35;;;;;;;;;;5009381;28;20042;-66
2020/12/14 08:35:30;;;;;;;3.88;1.60;;;;;;;;;;5010000;28;20080;-67
2020/12/14 08:38:00;;;;;;;1.70;1.02;;;;;;;;;;5010624;28;20033;-67
2020/12/14 08:40:25;;;;;;;5.60;1.33;;;;;;;;;;5010402;28;20038;-67
2020/12/14 08:42:50;;;;;;;6.10;1.52;;;;;;;;;;5010933;28;20088;-67
2020/12/14 08:45:15;;;;;;;6.13;1.63;;;;;;;;;;5008709;28;20021;-67
2020/12/14 08:47:42;;;;;;;6.70;2.08;;;;;;;;;;5010312;28;20471;-66
2020/12/14 08:50:08;;;;;;;7.68;1.45;;;;;;;;;;5009082;28;20097;-66
2020/12/14 08:52:33;;;;;;;10.45;1.67;;;;;;;;;;5010438;28;20411;-67
2020/12/14 08:54:58;;;;;;;7.38;1.75;;;;;;;;;;5010457;28;20064;-66
2020/12/14 08:57:30;;;;;;;8.27;3.00;;;;;;;;;;5009582;28;20010;-67
2020/12/14 09:00:12;;;;;;;6.50;2.30;;;;;;;;;;5009153;28;20048;-66
2020/12/14 09:02:38;;;;;;;3.05;1.58;;;;;;;;;;5003790;28;20018;-67
2020/12/14 09:05:12;;;;;;;5.60;1.77;;;;;;;;;;5010266;28;20032;-67
2020/12/14 09:07:37;;;;;;;4.38;1.45;;;;;;;;;;4991676;28;20144;-67
2020/12/14 09:10:12;;;;;;;11.00;2.85;;;;;;;;;;5010028;28;20030;-67
2020/12/14 09:12:37;;;;;;;4.70;1.45;;;;;;;;;;5005888;28;20264;-66
2020/12/14 09:15:03;;;;;;;3.28;1.65;;;;;;;;;;5009523;28;20493;-67
2020/12/14 09:17:28;;;;;;;1.92;1.08;;;;;;;;;;5008691;28;20265;-67
2020/12/14 09:19:53;;;;;;;4.70;1.70;;;;;;;;;;5008451;28;20101;-67
2020/12/14 09:22:22;;;;;;;7.68;1.55;;;;;;;;;;5009535;28;20053;-67
2020/12/14 09:24:47;;;;;;;4.82;1.77;;;;;;;;;;5008820;28;20018;-67
2020/12/14 09:27:14;;;;;;;6.65;2.10;;;;;;;;;;5008858;28;20437;-68
2020/12/14 09:29:40;;;;;;;8.68;1.92;;;;;;;;;;5009143;28;20037;-67
2020/12/14 09:32:06;;;;;;;5.30;2.15;;;;;;;;;;5008531;28;20429;-67
2020/12/14 09:34:32;;;;;;;4.50;1.70;;;;;;;;;;5009611;28;20025;-67
2020/12/14 09:36:58;;;;;;;5.72;2.50;;;;;;;;;;5003452;28;20493;-67
2020/12/14 09:39:24;;;;;;;6.30;1.75;;;;;;;;;;4997659;28;20037;-67
2020/12/14 09:41:50;;;;;;;5.13;1.85;;;;;;;;;;5010570;28;20319;-67
2020/12/14 09:44:16;;;;;;;17.23;2.05;;;;;;;;;;5009365;28;20065;-67
2020/12/14 09:46:41;;;;;;;10.10;3.08;;;;;;;;;;4991850;28;20057;-67
2020/12/14 09:49:07;;;;;;;6.15;1.77;;;;;;;;;;5009528;28;20022;-67
2020/12/14 09:51:33;;;;;;;2.63;1.20;;;;;;;;;;5008009;28;20277;-67
2020/12/14 09:53:58;;;;;;;6.03;1.13;;;;;;;;;;5008953;28;20026;-67
2020/12/14 09:56:23;;;;;;;3.50;1.83;;;;;;;;;;5009508;28;20538;-67
2020/12/14 09:58:49;;;;;;;5.72;2.22;;;;;;;;;;5009880;28;20275;-67
2020/12/14 10:01:14;;;;;;;7.28;1.58;;;;;;;;;;5009538;28;20401;-67
2020/12/14 10:03:40;;;;;;;5.07;1.95;;;;;;;;;;5009518;28;20362;-67
2020/12/14 10:06:05;;;;;;;7.80;1.77;;;;;;;;;;5008931;28;20102;-67
2020/12/14 10:08:30;;;;;;;3.80;1.60;;;;;;;;;;5005901;28;20018;-68
2020/12/14 10:10:56;;;;;;;6.80;2.42;;;;;;;;;;5008869;28;20038;-67
2020/12/14 10:13:22;;;;;;;9.73;1.88;;;;;;;;;;5009604;28;20018;-67
2020/12/14 10:15:48;;;;;;;4.03;1.77;;;;;;;;;;5008155;28;20452;-67
2020/12/14 10:18:13;;;;;;;5.57;2.47;;;;;;;;;;5008815;28;20022;-67
2020/12/14 10:20:38;;;;;;;4.93;2.37;;;;;;;;;;5008808;28;20030;-67
2020/12/14 10:23:04;;;;;;;7.78;2.78;;;;;;;;;;5008939;28;20617;-67
2020/12/14 10:25:29;;;;;;;4.43;1.85;;;;;;;;;;5003853;28;20265;-67
2020/12/14 10:27:54;;;;;;;8.57;1.52;;;;;;;;;;5009285;28;20137;-67
2020/12/14 10:30:19;;;;;;;4.60;1.53;;;;;;;;;;5009441;28;20104;-67
2020/12/14 10:32:45;;;;;;;1.25;0.85;;;;;;;;;;5009649;28;20292;-67
2020/12/14 10:35:10;;;;;;;3.80;1.60;;;;;;;;;;5009556;28;20467;-67
2020/12/14 10:37:35;;;;;;;8.95;2.13;;;;;;;;;;5008391;28;20021;-67
2020/12/14 10:40:04;;;;;;;5.30;1.83;;;;;;;;;;5008900;28;20443;-67
2020/12/14 10:42:30;;;;;;;3.83;1.70;;;;;;;;;;5000742;28;20289;-67
2020/12/14 10:44:55;;;;;;;8.85;1.75;;;;;;;;;;5009532;28;20045;-67
2020/12/14 10:47:20;;;;;;;2.30;1.33;;;;;;;;;;5012818;28;20017;-67
2020/12/14 10:49:45;;;;;;;5.78;1.17;;;;;;;;;;5012313;28;20030;-67
2020/12/14 10:52:11;;;;;;;1.60;1.17;;;;;;;;;;5012703;28;20058;-67
2020/12/14 10:54:36;;;;;;;1.25;0.80;;;;;;;;;;5012343;28;20301;-67
2020/12/14 10:57:01;;;;;;;5.72;1.60;;;;;;;;;;5012260;28;20026;-67
2020/12/14 10:59:27;;;;;;;6.70;2.03;;;;;;;;;;5010015;28;20486;-67
2020/12/14 11:01:52;;;;;;;6.32;1.73;;;;;;;;;;5010935;28;20292;-67
2020/12/14 11:04:17;;;;;;;3.53;1.40;;;;;;;;;;5011663;28;20054;-67
2020/12/14 11:06:42;;;;;;;6.22;2.03;;;;;;;;;;5012241;28;20022;-67
2020/12/14 11:09:08;;;;;;;2.92;1.15;;;;;;;;;;5012349;28;20024;-67
2020/12/14 11:11:35;;;;;;;9.40;2.00;;;;;;;;;;5012402;28;20057;-67
2020/12/14 11:14:00;;;;;;;4.25;1.15;;;;;;;;;;5012632;28;20620;-67
2020/12/14 11:16:26;;;;;;;4.18;1.75;;;;;;;;;;5010658;28;20026;-67
2020/12/14 11:18:52;;;;;;;2.63;1.50;;;;;;;;;;5010263;28;20025;-67
2020/12/14 11:21:17;;;;;;;1.58;0.95;;;;;;;;;;5012499;28;20028;-67
2020/12/14 11:23:42;;;;;;;6.40;1.95;;;;;;;;;;5012071;28;20407;-67
2020/12/14 11:26:07;;;;;;;4.73;1.40;;;;;;;;;;5011981;28;20532;-68
2020/12/14 11:28:32;;;;;;;4.78;1.75;;;;;;;;;;5011926;28;20297;-67
2020/12/14 11:30:57;;;;;;;2.37;1.30;;;;;;;;;;5011396;28;20030;-67
2020/12/14 11:33:23;;;;;;;5.00;1.67;;;;;;;;;;5010654;28;20268;-67
2020/12/14 11:35:48;;;;;;;6.82;2.33;;;;;;;;;;5007628;28;20269;-67
2020/12/14 11:38:13;;;;;;;6.60;2.92;;;;;;;;;;5011597;28;20504;-68
2020/12/14 11:40:38;;;;;;;2.23;1.10;;;;;;;;;;5011766;28;20065;-68
2020/12/14 11:43:03;;;;;;;3.08;1.30;;;;;;;;;;5011607;28;20265;-67
2020/12/14 11:45:28;;;;;;;6.93;2.20;;;;;;;;;;5007919;28;20382;-67
2020/12/14 11:47:54;;;;;;;2.13;1.10;;;;;;;;;;5010665;28;20271;-67
2020/12/14 11:50:20;;;;;;;2.53;1.15;;;;;;;;;;5011367;28;20017;-67
2020/12/14 11:52:46;;;;;;;2.15;1.35;;;;;;;;;;5011378;28;20033;-67
2020/12/14 11:55:12;;;;;;;3.30;1.58;;;;;;;;;;5010626;28;20018;-67
2020/12/14 11:57:37;;;;;;;6.05;1.88;;;;;;;;;;5010570;28;20025;-67
2020/12/14 12:00:03;;;;;;;11.05;1.95;;;;;;;;;;5011063;28;20021;-67
2020/12/14 12:02:28;;;;;;;6.22;1.35;;;;;;;;;;5011406;28;20257;-67
2020/12/14 12:04:54;;;;;;;2.50;1.00;;;;;;;;;;5011243;28;20517;-67
2020/12/14 12:07:19;;;;;;;15.43;3.20;;;;;;;;;;5011399;28;20022;-67
2020/12/14 12:09:44;;;;;;;5.90;1.15;;;;;;;;;;5010861;28;20280;-67
2020/12/14 12:12:09;;;;;;;6.10;1.63;;;;;;;;;;5009229;28;20629;-67
2020/12/14 12:14:34;;;;;;;2.93;1.37;;;;;;;;;;5010420;28;20376;-67
2020/12/14 12:16:59;;;;;;;2.70;1.52;;;;;;;;;;5011047;28;20323;-67
2020/12/14 12:19:25;;;;;;;7.93;1.73;;;;;;;;;;5010795;28;20331;-67
2020/12/14 12:21:50;;;;;;;3.17;1.57;;;;;;;;;;5011094;28;20409;-67
2020/12/14 12:24:15;;;;;;;3.70;1.48;;;;;;;;;;5011175;28;20269;-67
2020/12/14 12:26:41;;;;;;;6.43;1.25;;;;;;;;;;5003394;28;20049;-67
2020/12/14 12:29:06;;;;;;;3.33;1.40;;;;;;;;;;5009741;28;20166;-67
2020/12/14 12:31:31;;;;;;;4.45;1.40;;;;;;;;;;5010724;28;20429;-67
2020/12/14 12:33:56;;;;;;;6.77;0.83;;;;;;;;;;5010713;28;20044;-67
2020/12/14 12:36:21;;;;;;;3.20;0.87;;;;;;;;;;5010687;28;20260;-68
2020/12/14 12:38:47;;;;;;;10.93;2.50;;;;;;;;;;5011259;28;20765;-67
2020/12/14 12:41:12;;;;;;;8.85;1.88;;;;;;;;;;5008818;28;20293;-67
2020/12/14 12:43:37;;;;;;;3.47;1.40;;;;;;;;;;5010829;28;20040;-67
2020/12/14 12:46:02;;;;;;;4.07;1.60;;;;;;;;;;5006262;28;20018;-67
2020/12/14 12:48:27;;;;;;;2.63;0.97;;;;;;;;;;5010103;28;20273;-67
2020/12/14 12:50:53;;;;;;;2.00;1.08;;;;;;;;;;5010440;28;20271;-67
2020/12/14 12:53:19;;;;;;;5.88;1.70;;;;;;;;;;5010920;28;20296;-67
2020/12/14 12:55:44;;;;;;;5.32;1.05;;;;;;;;;;5010257;28;20110;-67
2020/12/14 12:58:09;;;;;;;4.05;1.50;;;;;;;;;;5010558;28;20104;-67
2020/12/14 13:00:34;;;;;;;1.85;0.85;;;;;;;;;;5009721;28;20395;-67
2020/12/14 13:03:00;;;;;;;14.88;2.22;;;;;;;;;;5009976;28;20888;-67
2020/12/14 13:05:25;;;;;;;8.43;1.20;;;;;;;;;;5009378;28;20280;-67
2020/12/14 13:07:50;;;;;;;4.60;1.50;;;;;;;;;;5009752;28;20835;-66
2020/12/14 13:10:15;;;;;;;6.13;1.75;;;;;;;;;;5009561;28;20253;-66
2020/12/14 13:12:40;;;;;;;3.90;1.60;;;;;;;;;;5009901;28;20319;-66
2020/12/14 13:15:05;;;;;;;2.07;1.20;;;;;;;;;;5009839;28;20269;-67
2020/12/14 13:17:30;;;;;;;3.63;1.70;;;;;;;;;;5010657;28;20261;-67
2020/12/14 13:19:56;;;;;;;7.75;1.15;;;;;;;;;;5009523;28;20037;-66
2020/12/14 13:22:21;;;;;;;5.30;1.48;;;;;;;;;;5008255;28;20319;-67
2020/12/14 13:24:46;;;;;;;6.07;1.55;;;;;;;;;;5009729;28;20272;-67
2020/12/14 13:27:11;;;;;;;3.50;1.35;;;;;;;;;;5009734;28;20265;-67
2020/12/14 13:29:36;;;;;;;7.05;2.10;;;;;;;;;;4992310;28;20265;-67
2020/12/14 13:32:01;;;;;;;1.92;1.17;;;;;;;;;;5010848;28;20026;-67
2020/12/14 13:34:27;;;;;;;3.90;1.23;;;;;;;;;;5009883;28;20081;-67
2020/12/14 13:36:52;;;;;;;2.17;1.20;;;;;;;;;;5010653;28;20277;-67
2020/12/14 13:39:19;;;;;;;3.35;1.10;;;;;;;;;;5010197;28;20026;-67
2020/12/14 13:41:44;;;;;;;1.23;0.75;;;;;;;;;;5010247;28;20169;-67
2020/12/14 13:44:09;;;;;;;3.17;1.27;;;;;;;;;;5010561;28;20102;-67
2020/12/14 13:46:34;;;;;;;4.57;1.57;;;;;;;;;;5010932;28;20296;-66
2020/12/14 13:49:00;;;;;;;3.13;1.15;;;;;;;;;;5013320;28;20273;-67
2020/12/14 13:51:27;;;;;;;4.80;1.47;;;;;;;;;;5004112;28;20213;-67
2020/12/14 13:53:52;;;;;;;2.38;1.27;;;;;;;;;;5010675;28;20276;-67
2020/12/14 13:56:17;;;;;;;3.65;1.33;;;;;;;;;;5010552;28;20018;-67
2020/12/14 13:58:43;;;;;;;2.23;1.33;;;;;;;;;;5010305;28;20069;-67
2020/12/14 14:01:12;;;;;;;3.70;1.15;;;;;;;;;;5010499;28;20291;-67
2020/12/14 14:03:37;;;;;;;5.20;1.60;;;;;;;;;;5010432;28;20109;-66
2020/12/14 14:06:02;;;;;;;2.00;1.00;;;;;;;;;;4995715;28;20094;-67
2020/12/14 14:08:27;;;;;;;4.40;1.23;;;;;;;;;;4991001;28;20035;-66
2020/12/14 14:10:52;;;;;;;2.00;1.23;;;;;;;;;;5009613;28;20893;-66
2020/12/14 14:13:18;;;;;;;3.88;1.40;;;;;;;;;;5010751;28;20026;-67
2020/12/14 14:15:43;;;;;;;2.50;1.33;;;;;;;;;;5010339;28;20104;-67
2020/12/14 14:18:08;;;;;;;2.63;1.30;;;;;;;;;;5011464;28;20474;-67
2020/12/14 14:20:33;;;;;;;6.22;1.10;;;;;;;;;;5013663;28;20106;-67
2020/12/14 14:22:58;;;;;;;2.27;0.67;;;;;;;;;;5013726;28;20026;-67
2020/12/14 14:25:23;;;;;;;4.30;1.27;;;;;;;;;;5003931;28;20785;-67
2020/12/14 14:27:49;;;;;;;6.45;1.35;;;;;;;;;;4994415;28;20464;-67
2020/12/14 14:30:14;;;;;;;3.60;1.45;;;;;;;;;;5007043;28;20505;-67
2020/12/14 14:32:40;;;;;;;4.60;1.50;;;;;;;;;;5012326;28;20024;-68
2020/12/14 14:35:06;;;;;;;3.10;1.00;;;;;;;;;;5013952;28;20018;-67
2020/12/14 14:37:34;;;;;;;6.93;1.65;;;;;;;;;;5013595;28;20025;-66
2020/12/14 14:40:00;;;;;;;2.17;0.88;;;;;;;;;;5010812;28;20025;-66